sensor_id;sensor_type;location;lat;lon;timestamp;temperature;humidity
21439;DHT22;10880;50.302;18.736;2023-05-14T00:02:05;15.50;42.70
21439;DHT22;10880;50.302;18.736;2023-05-14T00:04:38;15.50;42.70
21439;DHT22;10880;50.302;18.736;2023-05-14T00:07:31;15.50;42.80
21439;DHT22;10880;50.302;18.736;2023-05-14T00:10:04;15.50;42.60
21439;DHT22;10880;50.302;18.736;2023-05-14T00:12:57;15.50;43.00
21439;DHT22;10880;50.302;18.736;2023-05-14T00:18:23;15.50;42.70
21439;DHT22;10880;50.302;18.736;2023-05-14T00:20:56;15.40;43.10
21439;DHT22;10880;50.302;18.736;2023-05-14T00:23:49;15.40;43.10
21439;DHT22;10880;50.302;18.736;2023-05-14T00:26:25;15.40;43.20
21439;DHT22;10880;50.302;18.736;2023-05-14T00:29:18;15.40;43.40
21439;DHT22;10880;50.302;18.736;2023-05-14T00:31:51;15.40;43.30
21439;DHT22;10880;50.302;18.736;2023-05-14T00:34:44;15.40;43.30
21439;DHT22;10880;50.302;18.736;2023-05-14T00:37:17;15.40;43.30
21439;DHT22;10880;50.302;18.736;2023-05-14T00:40:10;15.40;43.30
21439;DHT22;10880;50.302;18.736;2023-05-14T00:42:44;15.30;43.40
21439;DHT22;10880;50.302;18.736;2023-05-14T00:45:37;15.30;43.30
21439;DHT22;10880;50.302;18.736;2023-05-14T00:48:10;15.30;43.30
21439;DHT22;10880;50.302;18.736;2023-05-14T00:51:03;15.30;44.00
21439;DHT22;10880;50.302;18.736;2023-05-14T00:53:37;15.20;43.50
21439;DHT22;10880;50.302;18.736;2023-05-14T00:56:30;15.20;43.50
21439;DHT22;10880;50.302;18.736;2023-05-14T00:59:03;15.20;43.50
21439;DHT22;10880;50.302;18.736;2023-05-14T01:01:56;15.10;43.50
21439;DHT22;10880;50.302;18.736;2023-05-14T01:04:29;15.10;43.60
21439;DHT22;10880;50.302;18.736;2023-05-14T01:07:43;15.10;43.60
21439;DHT22;10880;50.302;18.736;2023-05-14T01:10:31;15.10;43.90
21439;DHT22;10880;50.302;18.736;2023-05-14T01:16:11;15.00;43.90
21439;DHT22;10880;50.302;18.736;2023-05-14T01:19:12;14.90;43.80
21439;DHT22;10880;50.302;18.736;2023-05-14T01:21:53;14.90;43.90
21439;DHT22;10880;50.302;18.736;2023-05-14T01:24:47;14.80;43.70
21439;DHT22;10880;50.302;18.736;2023-05-14T01:30:35;14.70;44.10
21439;DHT22;10880;50.302;18.736;2023-05-14T01:33:12;14.70;44.20
21439;DHT22;10880;50.302;18.736;2023-05-14T01:36:06;14.60;44.10
21439;DHT22;10880;50.302;18.736;2023-05-14T01:38:39;14.60;44.30
21439;DHT22;10880;50.302;18.736;2023-05-14T01:41:34;14.60;44.40
21439;DHT22;10880;50.302;18.736;2023-05-14T01:44:08;14.50;44.40
21439;DHT22;10880;50.302;18.736;2023-05-14T01:47:01;14.50;44.40
21439;DHT22;10880;50.302;18.736;2023-05-14T01:49:35;14.50;44.40
21439;DHT22;10880;50.302;18.736;2023-05-14T01:52:28;14.50;44.50
21439;DHT22;10880;50.302;18.736;2023-05-14T01:57:54;14.40;44.10
21439;DHT22;10880;50.302;18.736;2023-05-14T02:00:27;14.40;44.60
21439;DHT22;10880;50.302;18.736;2023-05-14T02:03:20;14.40;44.70
21439;DHT22;10880;50.302;18.736;2023-05-14T02:05:53;14.40;44.70
21439;DHT22;10880;50.302;18.736;2023-05-14T02:08:46;13.70;44.30
21439;DHT22;10880;50.302;18.736;2023-05-14T02:11:19;14.30;44.70
21439;DHT22;10880;50.302;18.736;2023-05-14T02:14:12;14.30;44.70
21439;DHT22;10880;50.302;18.736;2023-05-14T02:16:46;14.30;44.80
21439;DHT22;10880;50.302;18.736;2023-05-14T02:19:39;14.30;44.80
21439;DHT22;10880;50.302;18.736;2023-05-14T02:22:12;14.20;44.80
21439;DHT22;10880;50.302;18.736;2023-05-14T02:25:06;14.20;44.90
21439;DHT22;10880;50.302;18.736;2023-05-14T02:27:39;14.20;45.00
21439;DHT22;10880;50.302;18.736;2023-05-14T02:30:33;14.20;44.80
21439;DHT22;10880;50.302;18.736;2023-05-14T02:33:08;14.10;45.10
21439;DHT22;10880;50.302;18.736;2023-05-14T02:36:02;14.10;45.00
21439;DHT22;10880;50.302;18.736;2023-05-14T02:38:35;14.10;45.00
21439;DHT22;10880;50.302;18.736;2023-05-14T02:41:28;14.10;45.00
21439;DHT22;10880;50.302;18.736;2023-05-14T02:44:01;14.00;45.00
21439;DHT22;10880;50.302;18.736;2023-05-14T02:46:54;14.00;45.10
21439;DHT22;10880;50.302;18.736;2023-05-14T02:49:27;14.00;45.10
21439;DHT22;10880;50.302;18.736;2023-05-14T02:52:20;13.90;45.20
21439;DHT22;10880;50.302;18.736;2023-05-14T02:54:53;13.90;45.30
21439;DHT22;10880;50.302;18.736;2023-05-14T02:57:46;13.90;45.30
21439;DHT22;10880;50.302;18.736;2023-05-14T03:00:20;13.90;45.30
21439;DHT22;10880;50.302;18.736;2023-05-14T03:03:14;13.90;45.40
21439;DHT22;10880;50.302;18.736;2023-05-14T03:05:47;13.90;45.20
21439;DHT22;10880;50.302;18.736;2023-05-14T03:08:40;13.60;45.30
21439;DHT22;10880;50.302;18.736;2023-05-14T03:11:13;13.80;45.40
21439;DHT22;10880;50.302;18.736;2023-05-14T03:14:06;13.80;45.50
21439;DHT22;10880;50.302;18.736;2023-05-14T03:16:39;13.70;45.50
21439;DHT22;10880;50.302;18.736;2023-05-14T03:19:32;13.70;45.50
21439;DHT22;10880;50.302;18.736;2023-05-14T03:22:06;13.70;45.60
21439;DHT22;10880;50.302;18.736;2023-05-14T03:24:59;13.70;45.60
21439;DHT22;10880;50.302;18.736;2023-05-14T03:27:32;13.70;45.70
21439;DHT22;10880;50.302;18.736;2023-05-14T03:30:25;13.70;45.50
21439;DHT22;10880;50.302;18.736;2023-05-14T03:32:58;13.70;45.80
21439;DHT22;10880;50.302;18.736;2023-05-14T03:35:51;13.70;45.90
21439;DHT22;10880;50.302;18.736;2023-05-14T03:38:24;13.70;45.90
21439;DHT22;10880;50.302;18.736;2023-05-14T03:41:17;13.70;45.60
21439;DHT22;10880;50.302;18.736;2023-05-14T03:43:51;13.70;46.10
21439;DHT22;10880;50.302;18.736;2023-05-14T03:46:44;13.70;46.10
21439;DHT22;10880;50.302;18.736;2023-05-14T03:49:18;13.70;46.20
21439;DHT22;10880;50.302;18.736;2023-05-14T03:52:11;13.60;46.20
21439;DHT22;10880;50.302;18.736;2023-05-14T03:54:44;13.70;47.10
21439;DHT22;10880;50.302;18.736;2023-05-14T03:57:37;13.70;46.50
21439;DHT22;10880;50.302;18.736;2023-05-14T04:00:11;13.70;46.60
21439;DHT22;10880;50.302;18.736;2023-05-14T04:03:05;13.70;46.70
21439;DHT22;10880;50.302;18.736;2023-05-14T04:05:39;13.70;46.70
21439;DHT22;10880;50.302;18.736;2023-05-14T04:08:32;13.70;46.70
21439;DHT22;10880;50.302;18.736;2023-05-14T04:11:05;13.70;46.80
21439;DHT22;10880;50.302;18.736;2023-05-14T04:13:58;13.70;46.90
21439;DHT22;10880;50.302;18.736;2023-05-14T04:16:31;13.80;47.10
21439;DHT22;10880;50.302;18.736;2023-05-14T04:19:24;13.80;47.10
21439;DHT22;10880;50.302;18.736;2023-05-14T04:21:57;13.80;47.20
21439;DHT22;10880;50.302;18.736;2023-05-14T04:24:50;13.80;47.20
21439;DHT22;10880;50.302;18.736;2023-05-14T04:27:24;13.90;47.30
21439;DHT22;10880;50.302;18.736;2023-05-14T04:30:17;13.90;47.40
21439;DHT22;10880;50.302;18.736;2023-05-14T04:32:50;13.90;47.40
21439;DHT22;10880;50.302;18.736;2023-05-14T04:35:44;13.90;47.50
21439;DHT22;10880;50.302;18.736;2023-05-14T04:38:17;14.00;47.60
21439;DHT22;10880;50.302;18.736;2023-05-14T04:41:11;14.00;47.70
21439;DHT22;10880;50.302;18.736;2023-05-14T04:43:45;14.10;47.80
21439;DHT22;10880;50.302;18.736;2023-05-14T04:46:38;14.10;47.90
21439;DHT22;10880;50.302;18.736;2023-05-14T04:49:11;14.20;47.90
21439;DHT22;10880;50.302;18.736;2023-05-14T04:52:06;14.30;48.00
21439;DHT22;10880;50.302;18.736;2023-05-14T04:54:39;14.30;48.10
21439;DHT22;10880;50.302;18.736;2023-05-14T04:57:32;14.40;48.10
21439;DHT22;10880;50.302;18.736;2023-05-14T05:00:06;14.50;48.20
21439;DHT22;10880;50.302;18.736;2023-05-14T05:02:59;14.60;48.40
21439;DHT22;10880;50.302;18.736;2023-05-14T05:05:32;14.80;47.90
21439;DHT22;10880;50.302;18.736;2023-05-14T05:08:26;14.80;48.40
21439;DHT22;10880;50.302;18.736;2023-05-14T05:10:59;14.90;48.50
21439;DHT22;10880;50.302;18.736;2023-05-14T05:13:52;15.00;48.60
21439;DHT22;10880;50.302;18.736;2023-05-14T05:16:25;15.10;48.70
21439;DHT22;10880;50.302;18.736;2023-05-14T05:19:18;15.30;48.90
21439;DHT22;10880;50.302;18.736;2023-05-14T05:21:51;15.40;48.90
21439;DHT22;10880;50.302;18.736;2023-05-14T05:24:44;15.60;48.90
21439;DHT22;10880;50.302;18.736;2023-05-14T05:27:17;15.70;49.00
21439;DHT22;10880;50.302;18.736;2023-05-14T05:30:11;15.80;49.00
21439;DHT22;10880;50.302;18.736;2023-05-14T05:32:44;16.00;48.90
21439;DHT22;10880;50.302;18.736;2023-05-14T05:35:37;16.10;48.80
21439;DHT22;10880;50.302;18.736;2023-05-14T05:38:10;16.30;48.70
21439;DHT22;10880;50.302;18.736;2023-05-14T05:41:03;16.40;48.60
21439;DHT22;10880;50.302;18.736;2023-05-14T05:43:36;16.60;48.60
21439;DHT22;10880;50.302;18.736;2023-05-14T05:46:29;16.70;48.60
21439;DHT22;10880;50.302;18.736;2023-05-14T05:49:02;16.80;48.80
21439;DHT22;10880;50.302;18.736;2023-05-14T05:51:55;17.00;48.90
21439;DHT22;10880;50.302;18.736;2023-05-14T05:54:29;17.20;49.10
21439;DHT22;10880;50.302;18.736;2023-05-14T05:57:24;17.40;49.30
21439;DHT22;10880;50.302;18.736;2023-05-14T05:59:58;17.70;49.50
21439;DHT22;10880;50.302;18.736;2023-05-14T06:03:01;18.00;49.70
21439;DHT22;10880;50.302;18.736;2023-05-14T06:05:35;18.40;50.00
21439;DHT22;10880;50.302;18.736;2023-05-14T06:08:27;18.60;50.20
21439;DHT22;10880;50.302;18.736;2023-05-14T06:11:00;19.10;50.20
21439;DHT22;10880;50.302;18.736;2023-05-14T06:13:53;19.40;50.00
21439;DHT22;10880;50.302;18.736;2023-05-14T06:16:26;19.90;49.90
21439;DHT22;10880;50.302;18.736;2023-05-14T06:19:19;20.30;49.80
21439;DHT22;10880;50.302;18.736;2023-05-14T06:21:52;20.90;49.40
21439;DHT22;10880;50.302;18.736;2023-05-14T06:24:46;21.40;49.00
21439;DHT22;10880;50.302;18.736;2023-05-14T06:27:19;21.90;48.20
21439;DHT22;10880;50.302;18.736;2023-05-14T06:30:13;22.30;47.40
21439;DHT22;10880;50.302;18.736;2023-05-14T06:32:46;22.80;46.30
21439;DHT22;10880;50.302;18.736;2023-05-14T06:35:39;23.10;45.50
21439;DHT22;10880;50.302;18.736;2023-05-14T06:38:12;23.30;44.30
21439;DHT22;10880;50.302;18.736;2023-05-14T06:41:05;23.50;43.30
21439;DHT22;10880;50.302;18.736;2023-05-14T06:43:38;23.60;42.70
21439;DHT22;10880;50.302;18.736;2023-05-14T06:46:31;23.60;41.80
21439;DHT22;10880;50.302;18.736;2023-05-14T06:49:04;23.60;41.40
21439;DHT22;10880;50.302;18.736;2023-05-14T06:51:57;23.60;41.20
21439;DHT22;10880;50.302;18.736;2023-05-14T06:54:30;23.50;40.90
21439;DHT22;10880;50.302;18.736;2023-05-14T06:57:23;23.40;41.00
21439;DHT22;10880;50.302;18.736;2023-05-14T06:59:56;23.40;40.90
21439;DHT22;10880;50.302;18.736;2023-05-14T07:02:51;23.30;40.60
21439;DHT22;10880;50.302;18.736;2023-05-14T07:05:24;23.20;40.50
21439;DHT22;10880;50.302;18.736;2023-05-14T07:08:17;23.10;40.80
21439;DHT22;10880;50.302;18.736;2023-05-14T07:10:50;23.10;40.80
21439;DHT22;10880;50.302;18.736;2023-05-14T07:13:43;23.00;40.80
21439;DHT22;10880;50.302;18.736;2023-05-14T07:16:16;22.90;40.80
21439;DHT22;10880;50.302;18.736;2023-05-14T07:19:09;22.90;40.80
21439;DHT22;10880;50.302;18.736;2023-05-14T07:21:42;22.80;40.80
21439;DHT22;10880;50.302;18.736;2023-05-14T07:24:35;22.80;41.00
21439;DHT22;10880;50.302;18.736;2023-05-14T07:27:08;22.80;40.90
21439;DHT22;10880;50.302;18.736;2023-05-14T07:30:01;22.70;41.00
21439;DHT22;10880;50.302;18.736;2023-05-14T07:32:34;22.70;41.00
21439;DHT22;10880;50.302;18.736;2023-05-14T07:35:27;22.70;41.20
21439;DHT22;10880;50.302;18.736;2023-05-14T07:38:03;22.70;41.10
21439;DHT22;10880;50.302;18.736;2023-05-14T07:40:56;22.70;41.40
21439;DHT22;10880;50.302;18.736;2023-05-14T07:43:30;22.70;41.40
21439;DHT22;10880;50.302;18.736;2023-05-14T07:46:23;22.70;41.40
21439;DHT22;10880;50.302;18.736;2023-05-14T07:48:57;22.70;41.50
21439;DHT22;10880;50.302;18.736;2023-05-14T07:51:50;22.70;41.40
21439;DHT22;10880;50.302;18.736;2023-05-14T07:54:23;22.70;41.50
21439;DHT22;10880;50.302;18.736;2023-05-14T07:57:18;22.70;41.70
21439;DHT22;10880;50.302;18.736;2023-05-14T07:59:51;22.70;41.60
21439;DHT22;10880;50.302;18.736;2023-05-14T08:02:51;22.70;41.50
21439;DHT22;10880;50.302;18.736;2023-05-14T08:05:24;22.80;41.50
21439;DHT22;10880;50.302;18.736;2023-05-14T08:08:17;22.80;41.40
21439;DHT22;10880;50.302;18.736;2023-05-14T08:10:50;22.80;41.40
21439;DHT22;10880;50.302;18.736;2023-05-14T08:13:43;22.80;41.50
21439;DHT22;10880;50.302;18.736;2023-05-14T08:16:16;22.80;41.50
21439;DHT22;10880;50.302;18.736;2023-05-14T08:19:11;22.90;41.40
21439;DHT22;10880;50.302;18.736;2023-05-14T08:21:44;22.90;41.40
21439;DHT22;10880;50.302;18.736;2023-05-14T08:24:38;23.00;41.60
21439;DHT22;10880;50.302;18.736;2023-05-14T08:27:10;23.00;41.50
21439;DHT22;10880;50.302;18.736;2023-05-14T08:30:04;23.00;41.60
21439;DHT22;10880;50.302;18.736;2023-05-14T08:32:37;23.00;41.60
21439;DHT22;10880;50.302;18.736;2023-05-14T08:35:30;23.00;41.50
21439;DHT22;10880;50.302;18.736;2023-05-14T08:38:04;23.10;41.30
21439;DHT22;10880;50.302;18.736;2023-05-14T08:41:00;23.10;40.90
21439;DHT22;10880;50.302;18.736;2023-05-14T08:47:03;23.20;41.50
21439;DHT22;10880;50.302;18.736;2023-05-14T08:49:40;23.20;41.20
21439;DHT22;10880;50.302;18.736;2023-05-14T08:52:34;23.20;41.20
21439;DHT22;10880;50.302;18.736;2023-05-14T08:55:07;23.20;41.10
21439;DHT22;10880;50.302;18.736;2023-05-14T08:58:01;23.20;41.10
21439;DHT22;10880;50.302;18.736;2023-05-14T09:00:34;23.30;41.20
21439;DHT22;10880;50.302;18.736;2023-05-14T09:03:28;23.30;41.20
21439;DHT22;10880;50.302;18.736;2023-05-14T09:06:02;23.30;41.30
21439;DHT22;10880;50.302;18.736;2023-05-14T09:08:55;23.30;41.20
21439;DHT22;10880;50.302;18.736;2023-05-14T09:11:28;23.40;41.00
21439;DHT22;10880;50.302;18.736;2023-05-14T09:14:23;23.30;41.00
21439;DHT22;10880;50.302;18.736;2023-05-14T09:16:55;23.40;40.90
21439;DHT22;10880;50.302;18.736;2023-05-14T09:19:48;23.40;41.10
21439;DHT22;10880;50.302;18.736;2023-05-14T09:22:28;23.40;41.10
21439;DHT22;10880;50.302;18.736;2023-05-14T09:25:26;23.50;41.10
21439;DHT22;10880;50.302;18.736;2023-05-14T09:28:05;23.60;40.40
21439;DHT22;10880;50.302;18.736;2023-05-14T09:30:58;23.60;40.90
21439;DHT22;10880;50.302;18.736;2023-05-14T09:33:31;23.60;40.60
21439;DHT22;10880;50.302;18.736;2023-05-14T09:36:26;23.60;40.70
21439;DHT22;10880;50.302;18.736;2023-05-14T09:39:00;23.70;40.50
21439;DHT22;10880;50.302;18.736;2023-05-14T09:41:55;23.70;40.50
21439;DHT22;10880;50.302;18.736;2023-05-14T09:44:28;23.80;40.50
21439;DHT22;10880;50.302;18.736;2023-05-14T09:47:22;23.80;40.40
21439;DHT22;10880;50.302;18.736;2023-05-14T09:49:55;23.80;40.30
21439;DHT22;10880;50.302;18.736;2023-05-14T09:52:48;23.90;40.50
21439;DHT22;10880;50.302;18.736;2023-05-14T09:55:22;23.90;40.30
21439;DHT22;10880;50.302;18.736;2023-05-14T09:58:14;24.00;40.20
21439;DHT22;10880;50.302;18.736;2023-05-14T10:00:47;24.00;40.60
21439;DHT22;10880;50.302;18.736;2023-05-14T10:03:42;24.00;39.90
21439;DHT22;10880;50.302;18.736;2023-05-14T10:06:19;24.00;39.60
21439;DHT22;10880;50.302;18.736;2023-05-14T10:09:15;24.10;39.60
21439;DHT22;10880;50.302;18.736;2023-05-14T10:11:52;24.10;39.40
21439;DHT22;10880;50.302;18.736;2023-05-14T10:14:52;24.10;39.50
21439;DHT22;10880;50.302;18.736;2023-05-14T10:17:31;24.20;38.90
21439;DHT22;10880;50.302;18.736;2023-05-14T10:20:26;23.60;39.30
21439;DHT22;10880;50.302;18.736;2023-05-14T10:22:59;24.20;39.30
21439;DHT22;10880;50.302;18.736;2023-05-14T10:25:52;24.20;39.40
21439;DHT22;10880;50.302;18.736;2023-05-14T10:28:26;24.30;39.10
21439;DHT22;10880;50.302;18.736;2023-05-14T10:34:35;24.30;39.00
21439;DHT22;10880;50.302;18.736;2023-05-14T10:37:33;24.40;38.30
21439;DHT22;10880;50.302;18.736;2023-05-14T10:40:08;24.40;38.70
21439;DHT22;10880;50.302;18.736;2023-05-14T10:43:03;24.40;38.80
21439;DHT22;10880;50.302;18.736;2023-05-14T10:45:36;24.40;38.70
21439;DHT22;10880;50.302;18.736;2023-05-14T10:48:30;24.40;38.70
21439;DHT22;10880;50.302;18.736;2023-05-14T10:51:06;24.50;38.80
21439;DHT22;10880;50.302;18.736;2023-05-14T10:54:01;24.50;38.70
21439;DHT22;10880;50.302;18.736;2023-05-14T10:56:35;24.50;38.50
21439;DHT22;10880;50.302;18.736;2023-05-14T10:59:28;24.50;38.50
21439;DHT22;10880;50.302;18.736;2023-05-14T11:02:05;24.50;38.40
21439;DHT22;10880;50.302;18.736;2023-05-14T11:05:14;24.60;38.40
21439;DHT22;10880;50.302;18.736;2023-05-14T11:07:49;24.60;38.30
21439;DHT22;10880;50.302;18.736;2023-05-14T11:10:44;24.70;38.30
21439;DHT22;10880;50.302;18.736;2023-05-14T11:13:21;24.70;38.10
21439;DHT22;10880;50.302;18.736;2023-05-14T11:16:13;24.70;38.10
21439;DHT22;10880;50.302;18.736;2023-05-14T11:19:00;24.70;37.90
21439;DHT22;10880;50.302;18.736;2023-05-14T11:21:55;24.70;37.90
21439;DHT22;10880;50.302;18.736;2023-05-14T11:27:23;24.80;37.40
21439;DHT22;10880;50.302;18.736;2023-05-14T11:29:56;24.90;37.70
21439;DHT22;10880;50.302;18.736;2023-05-14T11:32:49;24.90;37.80
21439;DHT22;10880;50.302;18.736;2023-05-14T11:35:22;24.90;37.60
21439;DHT22;10880;50.302;18.736;2023-05-14T11:38:16;24.90;37.60
21439;DHT22;10880;50.302;18.736;2023-05-14T11:40:59;25.00;37.30
21439;DHT22;10880;50.302;18.736;2023-05-14T11:43:54;25.00;37.30
21439;DHT22;10880;50.302;18.736;2023-05-14T11:46:27;25.00;37.00
21439;DHT22;10880;50.302;18.736;2023-05-14T11:49:22;25.00;37.00
21439;DHT22;10880;50.302;18.736;2023-05-14T11:51:59;25.10;37.00
21439;DHT22;10880;50.302;18.736;2023-05-14T11:54:52;25.10;36.20
21439;DHT22;10880;50.302;18.736;2023-05-14T11:57:25;25.10;36.70
21439;DHT22;10880;50.302;18.736;2023-05-14T12:00:18;25.10;36.70
21439;DHT22;10880;50.302;18.736;2023-05-14T12:03:12;25.10;36.60
21439;DHT22;10880;50.302;18.736;2023-05-14T12:05:59;25.10;36.50
21439;DHT22;10880;50.302;18.736;2023-05-14T12:08:54;25.10;36.60
21439;DHT22;10880;50.302;18.736;2023-05-14T12:11:31;25.20;36.50
21439;DHT22;10880;50.302;18.736;2023-05-14T12:14:24;25.20;36.60
21439;DHT22;10880;50.302;18.736;2023-05-14T12:16:57;25.20;36.20
21439;DHT22;10880;50.302;18.736;2023-05-14T12:19:51;25.20;36.30
21439;DHT22;10880;50.302;18.736;2023-05-14T12:22:24;25.20;36.30
21439;DHT22;10880;50.302;18.736;2023-05-14T12:25:18;25.20;36.30
21439;DHT22;10880;50.302;18.736;2023-05-14T12:27:50;25.20;36.30
21439;DHT22;10880;50.302;18.736;2023-05-14T12:30:47;25.20;36.30
21439;DHT22;10880;50.302;18.736;2023-05-14T12:33:20;25.20;36.10
21439;DHT22;10880;50.302;18.736;2023-05-14T12:36:13;25.20;36.10
21439;DHT22;10880;50.302;18.736;2023-05-14T12:38:46;25.20;36.00
21439;DHT22;10880;50.302;18.736;2023-05-14T12:41:39;25.20;36.10
21439;DHT22;10880;50.302;18.736;2023-05-14T12:44:12;25.20;35.70
21439;DHT22;10880;50.302;18.736;2023-05-14T12:47:07;25.20;35.80
21439;DHT22;10880;50.302;18.736;2023-05-14T12:49:40;25.30;35.70
21439;DHT22;10880;50.302;18.736;2023-05-14T12:52:33;25.20;35.60
21439;DHT22;10880;50.302;18.736;2023-05-14T12:55:07;25.20;35.50
21439;DHT22;10880;50.302;18.736;2023-05-14T12:58:00;25.20;35.60
21439;DHT22;10880;50.302;18.736;2023-05-14T13:00:33;25.20;35.50
21439;DHT22;10880;50.302;18.736;2023-05-14T13:03:26;25.20;35.60
21439;DHT22;10880;50.302;18.736;2023-05-14T13:05:59;25.20;35.50
21439;DHT22;10880;50.302;18.736;2023-05-14T13:08:52;25.20;35.60
21439;DHT22;10880;50.302;18.736;2023-05-14T13:11:25;25.20;35.50
21439;DHT22;10880;50.302;18.736;2023-05-14T13:14:19;25.20;35.70
21439;DHT22;10880;50.302;18.736;2023-05-14T13:16:51;25.20;35.60
21439;DHT22;10880;50.302;18.736;2023-05-14T13:19:44;25.20;35.20
21439;DHT22;10880;50.302;18.736;2023-05-14T13:22:18;25.20;35.70
21439;DHT22;10880;50.302;18.736;2023-05-14T13:25:10;25.20;35.60
21439;DHT22;10880;50.302;18.736;2023-05-14T13:27:43;25.30;35.50
21439;DHT22;10880;50.302;18.736;2023-05-14T13:30:37;25.30;35.50
21439;DHT22;10880;50.302;18.736;2023-05-14T13:33:09;25.30;35.40
21439;DHT22;10880;50.302;18.736;2023-05-14T13:36:03;25.30;35.20
21439;DHT22;10880;50.302;18.736;2023-05-14T13:38:37;25.30;35.00
21439;DHT22;10880;50.302;18.736;2023-05-14T13:41:31;25.30;35.10
21439;DHT22;10880;50.302;18.736;2023-05-14T13:44:06;25.30;35.00
21439;DHT22;10880;50.302;18.736;2023-05-14T13:46:59;25.30;35.80
21439;DHT22;10880;50.302;18.736;2023-05-14T13:49:32;25.30;34.80
21439;DHT22;10880;50.302;18.736;2023-05-14T13:52:25;25.30;34.70
21439;DHT22;10880;50.302;18.736;2023-05-14T13:54:58;25.30;34.80
21439;DHT22;10880;50.302;18.736;2023-05-14T13:57:51;25.30;34.80
21439;DHT22;10880;50.302;18.736;2023-05-14T14:00:25;25.20;34.10
21439;DHT22;10880;50.302;18.736;2023-05-14T14:03:19;25.20;34.20
21439;DHT22;10880;50.302;18.736;2023-05-14T14:05:52;25.20;34.60
21439;DHT22;10880;50.302;18.736;2023-05-14T14:08:45;25.20;34.70
21439;DHT22;10880;50.302;18.736;2023-05-14T14:11:18;25.20;34.60
21439;DHT22;10880;50.302;18.736;2023-05-14T14:14:13;25.20;34.80
21439;DHT22;10880;50.302;18.736;2023-05-14T14:16:46;25.20;34.70
21439;DHT22;10880;50.302;18.736;2023-05-14T14:19:39;25.30;34.90
21439;DHT22;10880;50.302;18.736;2023-05-14T14:22:12;25.20;34.70
21439;DHT22;10880;50.302;18.736;2023-05-14T14:25:06;25.20;34.70
21439;DHT22;10880;50.302;18.736;2023-05-14T14:30:33;25.20;34.20
21439;DHT22;10880;50.302;18.736;2023-05-14T14:33:06;25.20;34.60
21439;DHT22;10880;50.302;18.736;2023-05-14T14:36:00;25.20;34.70
21439;DHT22;10880;50.302;18.736;2023-05-14T14:38:33;25.30;34.70
21439;DHT22;10880;50.302;18.736;2023-05-14T14:41:25;25.20;34.70
21439;DHT22;10880;50.302;18.736;2023-05-14T14:43:58;25.20;34.20
21439;DHT22;10880;50.302;18.736;2023-05-14T14:46:52;25.20;34.70
21439;DHT22;10880;50.302;18.736;2023-05-14T14:49:25;25.20;34.70
21439;DHT22;10880;50.302;18.736;2023-05-14T14:52:18;25.20;34.70
21439;DHT22;10880;50.302;18.736;2023-05-14T14:54:53;25.20;34.70
21439;DHT22;10880;50.302;18.736;2023-05-14T14:57:47;25.20;34.80
21439;DHT22;10880;50.302;18.736;2023-05-14T15:00:21;25.10;34.70
21439;DHT22;10880;50.302;18.736;2023-05-14T15:03:14;25.10;34.80
21439;DHT22;10880;50.302;18.736;2023-05-14T15:05:47;25.10;34.70
21439;DHT22;10880;50.302;18.736;2023-05-14T15:08:40;25.10;34.70
21439;DHT22;10880;50.302;18.736;2023-05-14T15:11:13;25.10;34.70
21439;DHT22;10880;50.302;18.736;2023-05-14T15:14:07;25.00;34.80
21439;DHT22;10880;50.302;18.736;2023-05-14T15:16:40;25.00;34.70
21439;DHT22;10880;50.302;18.736;2023-05-14T15:19:34;25.00;35.00
21439;DHT22;10880;50.302;18.736;2023-05-14T15:22:06;25.00;34.90
21439;DHT22;10880;50.302;18.736;2023-05-14T15:24:59;24.90;35.00
21439;DHT22;10880;50.302;18.736;2023-05-14T15:27:32;24.90;35.00
21439;DHT22;10880;50.302;18.736;2023-05-14T15:30:25;24.90;35.10
21439;DHT22;10880;50.302;18.736;2023-05-14T15:32:58;24.90;35.10
21439;DHT22;10880;50.302;18.736;2023-05-14T15:35:51;24.80;35.20
21439;DHT22;10880;50.302;18.736;2023-05-14T15:38:24;24.80;35.10
21439;DHT22;10880;50.302;18.736;2023-05-14T15:41:18;24.80;35.30
21439;DHT22;10880;50.302;18.736;2023-05-14T15:43:50;24.80;35.30
21439;DHT22;10880;50.302;18.736;2023-05-14T15:46:43;24.80;35.40
21439;DHT22;10880;50.302;18.736;2023-05-14T15:49:16;24.70;35.30
21439;DHT22;10880;50.302;18.736;2023-05-14T15:52:09;24.70;35.50
21439;DHT22;10880;50.302;18.736;2023-05-14T15:54:45;24.70;35.50
21439;DHT22;10880;50.302;18.736;2023-05-14T15:57:40;24.70;35.60
21439;DHT22;10880;50.302;18.736;2023-05-14T16:00:13;24.70;35.70
21439;DHT22;10880;50.302;18.736;2023-05-14T16:03:07;24.70;35.70
21439;DHT22;10880;50.302;18.736;2023-05-14T16:06:00;24.70;35.80
21439;DHT22;10880;50.302;18.736;2023-05-14T16:08:33;24.70;35.40
21439;DHT22;10880;50.302;18.736;2023-05-14T16:11:27;24.60;35.80
21439;DHT22;10880;50.302;18.736;2023-05-14T16:13:59;24.60;35.80
21439;DHT22;10880;50.302;18.736;2023-05-14T16:16:53;24.60;35.80
21439;DHT22;10880;50.302;18.736;2023-05-14T16:19:27;24.60;35.60
21439;DHT22;10880;50.302;18.736;2023-05-14T16:22:20;24.50;36.30
21439;DHT22;10880;50.302;18.736;2023-05-14T16:24:52;24.50;35.60
21439;DHT22;10880;50.302;18.736;2023-05-14T16:27:46;24.50;35.70
21439;DHT22;10880;50.302;18.736;2023-05-14T16:30:23;24.50;35.30
21439;DHT22;10880;50.302;18.736;2023-05-14T16:33:18;24.50;35.80
21439;DHT22;10880;50.302;18.736;2023-05-14T16:35:51;24.50;35.70
21439;DHT22;10880;50.302;18.736;2023-05-14T16:38:44;24.50;35.80
21439;DHT22;10880;50.302;18.736;2023-05-14T16:41:17;24.40;35.70
21439;DHT22;10880;50.302;18.736;2023-05-14T16:44:10;24.40;35.70
21439;DHT22;10880;50.302;18.736;2023-05-14T16:46:43;24.40;35.70
21439;DHT22;10880;50.302;18.736;2023-05-14T16:49:37;24.40;35.80
21439;DHT22;10880;50.302;18.736;2023-05-14T16:52:09;24.40;35.70
21439;DHT22;10880;50.302;18.736;2023-05-14T16:55:05;24.40;35.90
21439;DHT22;10880;50.302;18.736;2023-05-14T16:57:39;24.40;35.90
21439;DHT22;10880;50.302;18.736;2023-05-14T17:00:35;24.30;35.80
21439;DHT22;10880;50.302;18.736;2023-05-14T17:03:28;24.30;35.80
21439;DHT22;10880;50.302;18.736;2023-05-14T17:06:00;24.30;35.80
21439;DHT22;10880;50.302;18.736;2023-05-14T17:08:54;24.30;35.80
21439;DHT22;10880;50.302;18.736;2023-05-14T17:11:27;24.30;35.80
21439;DHT22;10880;50.302;18.736;2023-05-14T17:14:20;24.30;35.90
21439;DHT22;10880;50.302;18.736;2023-05-14T17:16:54;24.30;35.80
21439;DHT22;10880;50.302;18.736;2023-05-14T17:19:48;24.30;35.90
21439;DHT22;10880;50.302;18.736;2023-05-14T17:22:20;24.30;35.90